sensor_id;sensor_type;location;lat;lon;timestamp;pressure;altitude;pressure_sealevel;temperature;humidity
71857;BME280;59712;46.980;28.882;2022-08-01T00:01:14;100141.13;;;19.78;88.89
71857;BME280;59712;46.980;28.882;2022-08-01T00:03:42;100146.91;;;19.74;89.03
71857;BME280;59712;46.980;28.882;2022-08-01T00:06:09;100154.16;;;19.73;89.03
71857;BME280;59712;46.980;28.882;2022-08-01T00:08:36;100156.13;;;19.71;89.03
71857;BME280;59712;46.980;28.882;2022-08-01T00:11:04;100161.72;;;19.68;89.22
71857;BME280;59712;46.980;28.882;2022-08-01T00:13:31;100154.03;;;19.63;88.97
71857;BME280;59712;46.980;28.882;2022-08-01T00:15:58;100143.38;;;19.62;88.96
71857;BME280;59712;46.980;28.882;2022-08-01T00:18:26;100139.84;;;19.61;88.98
71857;BME280;59712;46.980;28.882;2022-08-01T00:20:53;100133.56;;;19.61;89.27
71857;BME280;59712;46.980;28.882;2022-08-01T00:23:20;100125.25;;;19.64;89.55
71857;BME280;59712;46.980;28.882;2022-08-01T00:25:47;100121.69;;;19.63;89.82
71857;BME280;59712;46.980;28.882;2022-08-01T00:28:17;100113.88;;;19.60;90.22
71857;BME280;59712;46.980;28.882;2022-08-01T00:30:49;100121.81;;;19.62;90.17
71857;BME280;59712;46.980;28.882;2022-08-01T00:33:17;100121.94;;;19.60;90.23
71857;BME280;59712;46.980;28.882;2022-08-01T00:35:44;100136.25;;;19.61;90.11
71857;BME280;59712;46.980;28.882;2022-08-01T00:38:11;100138.97;;;19.61;90.05
71857;BME280;59712;46.980;28.882;2022-08-01T00:40:39;100140.94;;;19.59;90.35
71857;BME280;59712;46.980;28.882;2022-08-01T00:43:06;100132.13;;;19.57;89.94
71857;BME280;59712;46.980;28.882;2022-08-01T00:45:34;100129.44;;;19.57;90.08
71857;BME280;59712;46.980;28.882;2022-08-01T00:48:01;100139.34;;;19.56;89.82
71857;BME280;59712;46.980;28.882;2022-08-01T00:50:28;100133.13;;;19.56;89.84
71857;BME280;59712;46.980;28.882;2022-08-01T00:52:57;100120.50;;;19.56;89.74
71857;BME280;59712;46.980;28.882;2022-08-01T00:55:27;100117.69;;;19.58;89.48
71857;BME280;59712;46.980;28.882;2022-08-01T00:57:54;100114.88;;;19.59;89.12
71857;BME280;59712;46.980;28.882;2022-08-01T01:00:33;100104.81;;;19.61;89.00
71857;BME280;59712;46.980;28.882;2022-08-01T01:03:23;100104.09;;;19.59;89.17
71857;BME280;59712;46.980;28.882;2022-08-01T01:11:52;100109.06;;;19.64;89.09
71857;BME280;59712;46.980;28.882;2022-08-01T01:17:55;100105.19;;;19.57;88.86
71857;BME280;59712;46.980;28.882;2022-08-01T01:20:27;100092.44;;;19.59;88.40
71857;BME280;59712;46.980;28.882;2022-08-01T01:25:40;100093.88;;;19.63;88.35
71857;BME280;59712;46.980;28.882;2022-08-01T01:28:22;100097.56;;;19.62;88.65
71857;BME280;59712;46.980;28.882;2022-08-01T01:30:55;100094.88;;;19.62;88.51
71857;BME280;59712;46.980;28.882;2022-08-01T01:33:26;100090.47;;;19.61;88.20
71857;BME280;59712;46.980;28.882;2022-08-01T01:35:59;100085.47;;;19.56;88.30
71857;BME280;59712;46.980;28.882;2022-08-01T01:38:34;100081.22;;;19.54;88.54
71857;BME280;59712;46.980;28.882;2022-08-01T01:41:05;100085.59;;;19.55;88.56
71857;BME280;59712;46.980;28.882;2022-08-01T01:43:35;100077.53;;;19.55;88.56
71857;BME280;59712;46.980;28.882;2022-08-01T01:46:04;100070.69;;;19.50;88.60
71857;BME280;59712;46.980;28.882;2022-08-01T01:48:31;100072.41;;;19.52;88.96
71857;BME280;59712;46.980;28.882;2022-08-01T01:51:01;100076.94;;;19.51;88.99
71857;BME280;59712;46.980;28.882;2022-08-01T01:53:29;100063.34;;;19.53;89.50
71857;BME280;59712;46.980;28.882;2022-08-01T01:55:59;100057.81;;;19.54;89.53
71857;BME280;59712;46.980;28.882;2022-08-01T01:58:28;100047.03;;;19.54;89.39
71857;BME280;59712;46.980;28.882;2022-08-01T02:00:58;100041.53;;;19.56;88.94
71857;BME280;59712;46.980;28.882;2022-08-01T02:03:30;100031.47;;;19.58;89.34
71857;BME280;59712;46.980;28.882;2022-08-01T02:05:59;100027.78;;;19.59;88.80
71857;BME280;59712;46.980;28.882;2022-08-01T02:08:29;100024.13;;;19.60;89.01
71857;BME280;59712;46.980;28.882;2022-08-01T02:10:59;100025.09;;;19.59;88.66
71857;BME280;59712;46.980;28.882;2022-08-01T02:14:04;100017.72;;;19.61;88.92
71857;BME280;59712;46.980;28.882;2022-08-01T02:16:36;100031.19;;;19.61;89.09
71857;BME280;59712;46.980;28.882;2022-08-01T02:19:04;100045.66;;;19.60;88.66
71857;BME280;59712;46.980;28.882;2022-08-01T02:21:40;100048.38;;;19.60;89.07
71857;BME280;59712;46.980;28.882;2022-08-01T02:26:52;100060.09;;;19.59;89.00
71857;BME280;59712;46.980;28.882;2022-08-01T02:29:26;100062.81;;;19.59;89.09
71857;BME280;59712;46.980;28.882;2022-08-01T02:31:54;100055.72;;;19.58;89.25
71857;BME280;59712;46.980;28.882;2022-08-01T02:34:24;100058.53;;;19.56;89.48
71857;BME280;59712;46.980;28.882;2022-08-01T02:36:54;100063.09;;;19.56;89.08
71857;BME280;59712;46.980;28.882;2022-08-01T02:39:23;100064.78;;;19.57;88.43
71857;BME280;59712;46.980;28.882;2022-08-01T02:41:57;100063.22;;;19.54;88.63
71857;BME280;59712;46.980;28.882;2022-08-01T02:44:31;100061.63;;;19.52;88.40
71857;BME280;59712;46.980;28.882;2022-08-01T02:47:01;100067.88;;;19.52;88.93
71857;BME280;59712;46.980;28.882;2022-08-01T02:49:35;100067.03;;;19.52;88.42
71857;BME280;59712;46.980;28.882;2022-08-01T02:52:08;100068.72;;;19.53;88.25
71857;BME280;59712;46.980;28.882;2022-08-01T02:54:37;100064.56;;;19.48;88.56
71857;BME280;59712;46.980;28.882;2022-08-01T02:57:06;100074.25;;;19.51;88.18
71857;BME280;59712;46.980;28.882;2022-08-01T02:59:40;100069.72;;;19.52;89.14
71857;BME280;59712;46.980;28.882;2022-08-01T03:02:08;100068.00;;;19.50;88.84
71857;BME280;59712;46.980;28.882;2022-08-01T03:04:38;100065.19;;;19.52;88.61
71857;BME280;59712;46.980;28.882;2022-08-01T03:07:08;100065.06;;;19.54;88.39
71857;BME280;59712;46.980;28.882;2022-08-01T03:09:39;100075.81;;;19.54;88.31
71857;BME280;59712;46.980;28.882;2022-08-01T03:12:11;100075.72;;;19.55;88.33
71857;BME280;59712;46.980;28.882;2022-08-01T03:14:42;100073.00;;;19.55;87.86
71857;BME280;59712;46.980;28.882;2022-08-01T03:17:10;100073.00;;;19.55;87.61
71857;BME280;59712;46.980;28.882;2022-08-01T03:19:39;100069.59;;;19.53;88.02
71857;BME280;59712;46.980;28.882;2022-08-01T03:22:08;100067.03;;;19.52;88.25
71857;BME280;59712;46.980;28.882;2022-08-01T03:24:39;100076.19;;;19.49;87.96
71857;BME280;59712;46.980;28.882;2022-08-01T03:27:08;100073.78;;;19.46;87.68
71857;BME280;59712;46.980;28.882;2022-08-01T03:29:38;100066.81;;;19.43;87.97
71857;BME280;59712;46.980;28.882;2022-08-01T03:32:06;100070.03;;;19.37;88.02
71857;BME280;59712;46.980;28.882;2022-08-01T03:34:35;100068.72;;;19.32;88.81
71857;BME280;59712;46.980;28.882;2022-08-01T03:37:06;100068.84;;;19.30;89.09
71857;BME280;59712;46.980;28.882;2022-08-01T03:39:40;100063.84;;;19.25;88.79
71857;BME280;59712;46.980;28.882;2022-08-01T03:42:16;100068.34;;;19.25;89.08
71857;BME280;59712;46.980;28.882;2022-08-01T03:44:52;100071.19;;;19.23;88.79
71857;BME280;59712;46.980;28.882;2022-08-01T03:47:23;100069.25;;;19.25;88.74
71857;BME280;59712;46.980;28.882;2022-08-01T03:49:53;100071.66;;;19.28;89.21
71857;BME280;59712;46.980;28.882;2022-08-01T03:52:24;100069.44;;;19.34;89.22
71857;BME280;59712;46.980;28.882;2022-08-01T03:54:55;100068.06;;;19.39;89.56
71857;BME280;59712;46.980;28.882;2022-08-01T03:57:24;100069.53;;;19.43;89.62
71857;BME280;59712;46.980;28.882;2022-08-01T04:00:04;100068.53;;;19.44;89.40
71857;BME280;59712;46.980;28.882;2022-08-01T04:02:36;100065.31;;;19.50;89.15
71857;BME280;59712;46.980;28.882;2022-08-01T04:05:07;100063.81;;;19.58;89.10
71857;BME280;59712;46.980;28.882;2022-08-01T04:07:34;100057.16;;;19.62;88.88
71857;BME280;59712;46.980;28.882;2022-08-01T04:10:06;100063.72;;;19.69;88.58
71857;BME280;59712;46.980;28.882;2022-08-01T04:12:34;100061.28;;;19.77;88.45
71857;BME280;59712;46.980;28.882;2022-08-01T04:15:02;100063.44;;;19.83;88.29
71857;BME280;59712;46.980;28.882;2022-08-01T04:17:30;100067.81;;;19.84;87.49
71857;BME280;59712;46.980;28.882;2022-08-01T04:19:58;100069.25;;;19.88;87.50
71857;BME280;59712;46.980;28.882;2022-08-01T04:22:26;100064.34;;;19.94;87.39
71857;BME280;59712;46.980;28.882;2022-08-01T04:24:57;100065.66;;;19.99;87.17
71857;BME280;59712;46.980;28.882;2022-08-01T04:27:29;100061.69;;;20.03;86.69
71857;BME280;59712;46.980;28.882;2022-08-01T04:30:26;100064.22;;;20.05;86.31
71857;BME280;59712;46.980;28.882;2022-08-01T04:32:55;100068.41;;;20.09;85.85
71857;BME280;59712;46.980;28.882;2022-08-01T04:35:24;100069.56;;;20.16;85.59
71857;BME280;59712;46.980;28.882;2022-08-01T04:38:21;100067.50;;;20.29;85.47
71857;BME280;59712;46.980;28.882;2022-08-01T04:40:57;100076.19;;;20.43;84.50
71857;BME280;59712;46.980;28.882;2022-08-01T04:43:34;100067.47;;;20.60;85.16
71857;BME280;59712;46.980;28.882;2022-08-01T04:46:11;100069.06;;;20.73;84.09
71857;BME280;59712;46.980;28.882;2022-08-01T04:48:43;100060.28;;;20.90;84.00
71857;BME280;59712;46.980;28.882;2022-08-01T04:51:16;100067.66;;;20.88;82.45
71857;BME280;59712;46.980;28.882;2022-08-01T04:54:13;100059.47;;;20.99;81.45
71857;BME280;59712;46.980;28.882;2022-08-01T04:56:47;100053.47;;;20.96;80.88
71857;BME280;59712;46.980;28.882;2022-08-01T05:00:09;100053.19;;;20.89;80.64
71857;BME280;59712;46.980;28.882;2022-08-01T05:03:04;100060.03;;;20.93;81.28
71857;BME280;59712;46.980;28.882;2022-08-01T05:05:36;100058.03;;;21.34;81.87
71857;BME280;59712;46.980;28.882;2022-08-01T05:08:08;100053.41;;;21.93;80.93
71857;BME280;59712;46.980;28.882;2022-08-01T05:10:50;100037.56;;;22.45;78.27
71857;BME280;59712;46.980;28.882;2022-08-01T05:13:24;100048.34;;;22.55;75.22
71857;BME280;59712;46.980;28.882;2022-08-01T05:16:06;100064.38;;;22.39;75.71
71857;BME280;59712;46.980;28.882;2022-08-01T05:19:02;100058.13;;;22.28;75.48
71857;BME280;59712;46.980;28.882;2022-08-01T05:25:55;100067.31;;;22.08;74.68
71857;BME280;59712;46.980;28.882;2022-08-01T05:28:51;100076.38;;;22.26;76.63
71857;BME280;59712;46.980;28.882;2022-08-01T05:32:13;100064.69;;;22.81;74.21
71857;BME280;59712;46.980;28.882;2022-08-01T05:35:20;100061.31;;;22.97;72.74
71857;BME280;59712;46.980;28.882;2022-08-01T05:38:18;100057.25;;;23.11;71.61
71857;BME280;59712;46.980;28.882;2022-08-01T05:41:22;100064.34;;;23.30;71.16
71857;BME280;59712;46.980;28.882;2022-08-01T05:44:18;100065.22;;;23.93;71.15
71857;BME280;59712;46.980;28.882;2022-08-01T05:51:45;100059.81;;;24.61;66.34
71857;BME280;59712;46.980;28.882;2022-08-01T05:55:12;100070.97;;;24.24;65.88
71857;BME280;59712;46.980;28.882;2022-08-01T05:57:57;100067.88;;;23.84;65.59
71857;BME280;59712;46.980;28.882;2022-08-01T06:01:02;100075.03;;;23.50;67.26
71857;BME280;59712;46.980;28.882;2022-08-01T06:04:58;100080.41;;;23.23;67.95
71857;BME280;59712;46.980;28.882;2022-08-01T06:09:12;100072.28;;;22.96;68.25
71857;BME280;59712;46.980;28.882;2022-08-01T06:12:46;100075.13;;;22.76;69.48
71857;BME280;59712;46.980;28.882;2022-08-01T06:16:52;100080.91;;;22.63;70.22
71857;BME280;59712;46.980;28.882;2022-08-01T06:20:38;100079.50;;;22.59;69.92
71857;BME280;59712;46.980;28.882;2022-08-01T06:23:58;100076.38;;;22.54;69.89
71857;BME280;59712;46.980;28.882;2022-08-01T06:27:20;100084.28;;;22.47;70.15
71857;BME280;59712;46.980;28.882;2022-08-01T06:30:20;100087.97;;;22.46;69.85
71857;BME280;59712;46.980;28.882;2022-08-01T06:34:03;100090.84;;;22.45;69.27
71857;BME280;59712;46.980;28.882;2022-08-01T06:37:06;100087.41;;;22.53;69.65
71857;BME280;59712;46.980;28.882;2022-08-01T06:39:54;100088.00;;;22.64;69.20
71857;BME280;59712;46.980;28.882;2022-08-01T06:42:28;100082.41;;;22.76;69.53
71857;BME280;59712;46.980;28.882;2022-08-01T06:45:18;100081.59;;;22.93;67.90
71857;BME280;59712;46.980;28.882;2022-08-01T06:48:49;100073.94;;;23.06;67.83
71857;BME280;59712;46.980;28.882;2022-08-01T06:52:40;100061.97;;;23.27;67.35
71857;BME280;59712;46.980;28.882;2022-08-01T06:55:52;100068.16;;;23.37;66.50
71857;BME280;59712;46.980;28.882;2022-08-01T07:03:37;100058.16;;;23.38;67.20
71857;BME280;59712;46.980;28.882;2022-08-01T07:07:15;100066.59;;;23.53;66.11
71857;BME280;59712;46.980;28.882;2022-08-01T07:11:11;100073.41;;;23.57;65.86
71857;BME280;59712;46.980;28.882;2022-08-01T07:19:04;100050.22;;;23.62;65.35
71857;BME280;59712;46.980;28.882;2022-08-01T07:22:09;100059.91;;;23.65;65.25
71857;BME280;59712;46.980;28.882;2022-08-01T07:29:16;100053.66;;;23.64;64.48
71857;BME280;59712;46.980;28.882;2022-08-01T07:32:21;100059.59;;;23.68;64.88
71857;BME280;59712;46.980;28.882;2022-08-01T07:40:56;100063.47;;;23.83;62.17
71857;BME280;59712;46.980;28.882;2022-08-01T07:45:13;100061.19;;;23.97;61.97
71857;BME280;59712;46.980;28.882;2022-08-01T07:48:54;100052.41;;;24.03;62.91
71857;BME280;59712;46.980;28.882;2022-08-01T07:52:03;100055.19;;;24.19;61.57
71857;BME280;59712;46.980;28.882;2022-08-01T07:55:29;100055.78;;;24.39;60.27
71857;BME280;59712;46.980;28.882;2022-08-01T07:59:09;100058.19;;;24.42;60.55
71857;BME280;59712;46.980;28.882;2022-08-01T08:07:11;100044.56;;;24.69;59.49
71857;BME280;59712;46.980;28.882;2022-08-01T08:20:28;100068.81;;;25.62;54.27
71857;BME280;59712;46.980;28.882;2022-08-01T08:24:34;100065.06;;;25.30;55.95
71857;BME280;59712;46.980;28.882;2022-08-01T08:32:58;100060.91;;;26.25;53.41
71857;BME280;59712;46.980;28.882;2022-08-01T08:36:24;100065.41;;;26.49;53.39
71857;BME280;59712;46.980;28.882;2022-08-01T08:48:43;100067.53;;;28.38;51.20
71857;BME280;59712;46.980;28.882;2022-08-01T08:52:24;100064.50;;;28.33;49.02
71857;BME280;59712;46.980;28.882;2022-08-01T08:55:43;100060.47;;;27.61;50.62
71857;BME280;59712;46.980;28.882;2022-08-01T09:00:13;100048.88;;;27.59;52.20
71857;BME280;59712;46.980;28.882;2022-08-01T09:08:10;100043.38;;;29.29;46.93
71857;BME280;59712;46.980;28.882;2022-08-01T09:11:23;100042.59;;;29.35;47.96
71857;BME280;59712;46.980;28.882;2022-08-01T09:14:22;100043.88;;;29.83;47.20
71857;BME280;59712;46.980;28.882;2022-08-01T09:17:07;100050.84;;;30.20;46.18
71857;BME280;59712;46.980;28.882;2022-08-01T09:19:52;100049.34;;;30.52;42.80
71857;BME280;59712;46.980;28.882;2022-08-01T09:22:33;100048.81;;;30.77;44.37
71857;BME280;59712;46.980;28.882;2022-08-01T09:25:14;100051.47;;;31.12;42.79
71857;BME280;59712;46.980;28.882;2022-08-01T09:28:12;100061.22;;;31.81;42.70
71857;BME280;59712;46.980;28.882;2022-08-01T09:31:08;100061.66;;;31.78;39.65
71857;BME280;59712;46.980;28.882;2022-08-01T09:37:47;100059.31;;;31.95;40.48
71857;BME280;59712;46.980;28.882;2022-08-01T09:40:14;100059.75;;;31.85;40.27
71857;BME280;59712;46.980;28.882;2022-08-01T09:42:45;100060.38;;;31.94;41.57
71857;BME280;59712;46.980;28.882;2022-08-01T09:45:39;100065.47;;;31.84;40.60
71857;BME280;59712;46.980;28.882;2022-08-01T09:49:03;100059.94;;;31.37;41.53
71857;BME280;59712;46.980;28.882;2022-08-01T09:51:38;100061.19;;;31.21;41.12
71857;BME280;59712;46.980;28.882;2022-08-01T09:54:33;100061.38;;;31.13;41.44
71857;BME280;59712;46.980;28.882;2022-08-01T09:57:13;100065.06;;;30.85;41.23
71857;BME280;59712;46.980;28.882;2022-08-01T09:59:47;100066.00;;;30.51;42.61
71857;BME280;59712;46.980;28.882;2022-08-01T10:02:37;100074.03;;;30.52;43.34
71857;BME280;59712;46.980;28.882;2022-08-01T10:05:08;100060.31;;;30.52;42.16
71857;BME280;59712;46.980;28.882;2022-08-01T10:07:59;100055.41;;;30.41;41.94
71857;BME280;59712;46.980;28.882;2022-08-01T10:10:33;100057.81;;;30.23;42.99
71857;BME280;59712;46.980;28.882;2022-08-01T10:13:04;100054.94;;;30.03;43.01
71857;BME280;59712;46.980;28.882;2022-08-01T10:15:35;100060.56;;;29.88;43.34
71857;BME280;59712;46.980;28.882;2022-08-01T10:18:08;100057.28;;;29.77;43.32
71857;BME280;59712;46.980;28.882;2022-08-01T10:20:54;100056.41;;;29.98;44.26
71857;BME280;59712;46.980;28.882;2022-08-01T10:23:26;100056.69;;;30.10;43.33
71857;BME280;59712;46.980;28.882;2022-08-01T10:26:12;100055.22;;;30.43;43.48
71857;BME280;59712;46.980;28.882;2022-08-01T10:28:44;100045.34;;;30.55;42.18
71857;BME280;59712;46.980;28.882;2022-08-01T10:31:12;100054.00;;;30.58;42.32
71857;BME280;59712;46.980;28.882;2022-08-01T10:33:41;100048.28;;;31.15;41.75
71857;BME280;59712;46.980;28.882;2022-08-01T10:36:20;100038.22;;;31.49;40.72
71857;BME280;59712;46.980;28.882;2022-08-01T10:38:58;100036.31;;;31.36;40.39
71857;BME280;59712;46.980;28.882;2022-08-01T10:41:27;100040.88;;;30.95;40.74
71857;BME280;59712;46.980;28.882;2022-08-01T10:44:01;100032.53;;;30.69;41.25
71857;BME280;59712;46.980;28.882;2022-08-01T10:46:30;100026.16;;;30.48;41.74
71857;BME280;59712;46.980;28.882;2022-08-01T10:49:05;100021.34;;;30.22;41.45
71857;BME280;59712;46.980;28.882;2022-08-01T10:51:44;100016.50;;;29.89;42.41
71857;BME280;59712;46.980;28.882;2022-08-01T10:54:39;100018.31;;;29.75;42.77
71857;BME280;59712;46.980;28.882;2022-08-01T10:57:18;100014.22;;;29.93;43.38
71857;BME280;59712;46.980;28.882;2022-08-01T10:59:53;100013.78;;;29.89;43.59
71857;BME280;59712;46.980;28.882;2022-08-01T11:02:34;100018.56;;;29.81;43.86
71857;BME280;59712;46.980;28.882;2022-08-01T11:05:19;100020.34;;;29.38;43.43
71857;BME280;59712;46.980;28.882;2022-08-01T11:07:54;100013.75;;;29.11;44.31
71857;BME280;59712;46.980;28.882;2022-08-01T11:10:36;100015.59;;;28.89;44.45
71857;BME280;59712;46.980;28.882;2022-08-01T11:13:09;100019.72;;;28.78;44.53
71857;BME280;59712;46.980;28.882;2022-08-01T11:15:46;100012.41;;;28.64;44.80
71857;BME280;59712;46.980;28.882;2022-08-01T11:18:32;100011.28;;;28.58;45.73
71857;BME280;59712;46.980;28.882;2022-08-01T11:21:03;100015.25;;;28.56;45.29
71857;BME280;59712;46.980;28.882;2022-08-01T11:23:59;100017.00;;;28.49;45.24
71857;BME280;59712;46.980;28.882;2022-08-01T11:26:31;100012.50;;;28.41;46.36
71857;BME280;59712;46.980;28.882;2022-08-01T11:29:12;100012.91;;;28.38;45.61
71857;BME280;59712;46.980;28.882;2022-08-01T11:31:47;100004.50;;;28.39;45.77
71857;BME280;59712;46.980;28.882;2022-08-01T11:34:16;100010.16;;;28.53;45.40
71857;BME280;59712;46.980;28.882;2022-08-01T11:36:50;100013.50;;;28.70;45.01
71857;BME280;59712;46.980;28.882;2022-08-01T11:40:14;100013.19;;;28.79;44.30
71857;BME280;59712;46.980;28.882;2022-08-01T11:42:44;100005.28;;;28.70;44.34
71857;BME280;59712;46.980;28.882;2022-08-01T11:45:14;100009.97;;;28.54;45.17
71857;BME280;59712;46.980;28.882;2022-08-01T11:47:50;100010.81;;;28.40;45.32
71857;BME280;59712;46.980;28.882;2022-08-01T11:52:59;100001.97;;;28.38;45.66
71857;BME280;59712;46.980;28.882;2022-08-01T11:55:28;99996.59;;;28.30;45.90
71857;BME280;59712;46.980;28.882;2022-08-01T11:58:04;99998.00;;;28.26;45.35
71857;BME280;59712;46.980;28.882;2022-08-01T12:00:35;99991.22;;;28.36;45.66
71857;BME280;59712;46.980;28.882;2022-08-01T12:03:11;99982.34;;;28.49;45.00
71857;BME280;59712;46.980;28.882;2022-08-01T12:06:03;99979.97;;;28.61;43.54
71857;BME280;59712;46.980;28.882;2022-08-01T12:08:32;99984.78;;;28.59;44.80
71857;BME280;59712;46.980;28.882;2022-08-01T12:11:03;99985.59;;;28.74;44.23
71857;BME280;59712;46.980;28.882;2022-08-01T12:13:41;99992.53;;;28.92;44.02
71857;BME280;59712;46.980;28.882;2022-08-01T12:16:16;99994.88;;;29.16;44.07
71857;BME280;59712;46.980;28.882;2022-08-01T12:18:44;99996.69;;;29.31;43.44
71857;BME280;59712;46.980;28.882;2022-08-01T12:21:11;100001.81;;;29.41;42.27
71857;BME280;59712;46.980;28.882;2022-08-01T12:23:38;100007.34;;;29.47;41.85
71857;BME280;59712;46.980;28.882;2022-08-01T12:26:07;99997.63;;;29.02;42.03
71857;BME280;59712;46.980;28.882;2022-08-01T12:28:54;100007.22;;;28.39;43.69
71857;BME280;59712;46.980;28.882;2022-08-01T12:31:31;100006.81;;;28.06;43.60
71857;BME280;59712;46.980;28.882;2022-08-01T12:34:25;100002.72;;;27.72;43.76
71857;BME280;59712;46.980;28.882;2022-08-01T12:36:57;100006.88;;;27.45;44.28
71857;BME280;59712;46.980;28.882;2022-08-01T12:39:34;99997.38;;;27.18;45.71
71857;BME280;59712;46.980;28.882;2022-08-01T12:42:08;99994.56;;;26.88;47.97
71857;BME280;59712;46.980;28.882;2022-08-01T12:44:39;99996.81;;;26.45;49.57
71857;BME280;59712;46.980;28.882;2022-08-01T12:47:12;100003.47;;;26.03;50.59
71857;BME280;59712;46.980;28.882;2022-08-01T12:49:42;100003.84;;;25.75;51.13
71857;BME280;59712;46.980;28.882;2022-08-01T12:52:12;99999.66;;;25.56;51.43
71857;BME280;59712;46.980;28.882;2022-08-01T12:55:03;99996.75;;;25.41;51.99
71857;BME280;59712;46.980;28.882;2022-08-01T12:57:38;99999.97;;;25.20;52.62
71857;BME280;59712;46.980;28.882;2022-08-01T13:00:21;100001.81;;;25.12;53.03
71857;BME280;59712;46.980;28.882;2022-08-01T13:03:14;99999.47;;;25.09;52.83
71857;BME280;59712;46.980;28.882;2022-08-01T13:05:55;100007.09;;;25.05;52.66
71857;BME280;59712;46.980;28.882;2022-08-01T13:08:29;100008.63;;;24.99;52.70
71857;BME280;59712;46.980;28.882;2022-08-01T13:11:06;100017.97;;;24.89;52.91
71857;BME280;59712;46.980;28.882;2022-08-01T13:13:39;100012.16;;;24.75;53.89
71857;BME280;59712;46.980;28.882;2022-08-01T13:16:08;100018.41;;;24.68;54.67
71857;BME280;59712;46.980;28.882;2022-08-01T13:18:50;100013.81;;;24.60;55.07
71857;BME280;59712;46.980;28.882;2022-08-01T13:21:22;100021.41;;;24.56;55.21
71857;BME280;59712;46.980;28.882;2022-08-01T13:24:12;100011.06;;;24.52;56.72
71857;BME280;59712;46.980;28.882;2022-08-01T13:26:48;100017.28;;;24.44;57.34
71857;BME280;59712;46.980;28.882;2022-08-01T13:29:21;100021.34;;;24.40;57.75
71857;BME280;59712;46.980;28.882;2022-08-01T13:31:54;100038.50;;;24.40;57.79
71857;BME280;59712;46.980;28.882;2022-08-01T13:34:32;100046.97;;;24.37;57.64
71857;BME280;59712;46.980;28.882;2022-08-01T13:37:01;100051.81;;;24.25;57.50
71857;BME280;59712;46.980;28.882;2022-08-01T13:39:29;100050.75;;;24.18;57.65
71857;BME280;59712;46.980;28.882;2022-08-01T13:42:14;100048.69;;;24.12;58.33
71857;BME280;59712;46.980;28.882;2022-08-01T13:44:45;100053.44;;;24.10;58.89
71857;BME280;59712;46.980;28.882;2022-08-01T13:47:12;100056.25;;;24.00;59.43
71857;BME280;59712;46.980;28.882;2022-08-01T13:49:41;100073.38;;;23.93;61.37
71857;BME280;59712;46.980;28.882;2022-08-01T13:52:09;100100.88;;;23.62;65.21
71857;BME280;59712;46.980;28.882;2022-08-01T13:54:36;100147.72;;;23.18;68.52
71857;BME280;59712;46.980;28.882;2022-08-01T13:57:04;100171.44;;;22.51;73.86
71857;BME280;59712;46.980;28.882;2022-08-01T13:59:31;100189.75;;;21.52;82.66
71857;BME280;59712;46.980;28.882;2022-08-01T14:02:05;100202.22;;;20.83;85.14
71857;BME280;59712;46.980;28.882;2022-08-01T14:04:36;100188.53;;;20.02;84.49
71857;BME280;59712;46.980;28.882;2022-08-01T14:07:03;100172.81;;;19.54;83.87
71857;BME280;59712;46.980;28.882;2022-08-01T14:09:38;100180.66;;;18.90;85.79
71857;BME280;59712;46.980;28.882;2022-08-01T14:12:25;100136.28;;;18.40;86.14
71857;BME280;59712;46.980;28.882;2022-08-01T14:14:55;100142.97;;;18.11;88.82
71857;BME280;59712;46.980;28.882;2022-08-01T14:17:24;100145.00;;;17.97;88.48
71857;BME280;59712;46.980;28.882;2022-08-01T14:19:54;100149.72;;;17.82;89.05
71857;BME280;59712;46.980;28.882;2022-08-01T14:22:26;100160.25;;;17.85;90.13
71857;BME280;59712;46.980;28.882;2022-08-01T14:24:54;100144.63;;;17.90;91.10
71857;BME280;59712;46.980;28.882;2022-08-01T14:27:29;100141.38;;;17.98;91.74
71857;BME280;59712;46.980;28.882;2022-08-01T14:29:58;100135.72;;;18.01;91.95
71857;BME280;59712;46.980;28.882;2022-08-01T14:32:30;100132.69;;;17.94;92.79
71857;BME280;59712;46.980;28.882;2022-08-01T14:34:57;100135.25;;;17.96;92.90
71857;BME280;59712;46.980;28.882;2022-08-01T14:37:25;100140.38;;;17.99;92.76
71857;BME280;59712;46.980;28.882;2022-08-01T14:39:57;100143.78;;;18.01;93.31
71857;BME280;59712;46.980;28.882;2022-08-01T14:42:25;100138.94;;;18.06;93.48
71857;BME280;59712;46.980;28.882;2022-08-01T14:44:53;100142.25;;;18.09;93.33
71857;BME280;59712;46.980;28.882;2022-08-01T14:47:20;100141.75;;;18.16;93.59
71857;BME280;59712;46.980;28.882;2022-08-01T14:49:49;100138.47;;;18.23;93.68
71857;BME280;59712;46.980;28.882;2022-08-01T14:52:17;100148.13;;;18.26;93.13
71857;BME280;59712;46.980;28.882;2022-08-01T14:54:45;100148.97;;;18.26;92.63
71857;BME280;59712;46.980;28.882;2022-08-01T14:57:13;100148.75;;;18.29;93.28
71857;BME280;59712;46.980;28.882;2022-08-01T14:59:45;100145.91;;;18.31;92.65
71857;BME280;59712;46.980;28.882;2022-08-01T15:02:13;100154.97;;;18.30;92.66
71857;BME280;59712;46.980;28.882;2022-08-01T15:04:47;100155.44;;;18.35;92.96
71857;BME280;59712;46.980;28.882;2022-08-01T15:07:17;100160.22;;;18.43;93.73
71857;BME280;59712;46.980;28.882;2022-08-01T15:09:45;100158.75;;;18.50;93.92
71857;BME280;59712;46.980;28.882;2022-08-01T15:12:12;100171.09;;;18.52;93.87
71857;BME280;59712;46.980;28.882;2022-08-01T15:14:40;100170.25;;;18.52;92.81
71857;BME280;59712;46.980;28.882;2022-08-01T15:17:28;100164.88;;;18.52;93.04
71857;BME280;59712;46.980;28.882;2022-08-01T15:20:04;100174.03;;;18.61;93.37